createdAt,value
2023-04-19T00:01:02.041Z,2.30
2023-04-19T00:02:03.868Z,1.85
2023-04-19T00:03:09.414Z,2.00
2023-04-19T00:04:11.511Z,2.05
2023-04-19T00:05:13.878Z,2.00
2023-04-19T00:06:16.147Z,1.83
2023-04-19T00:07:18.664Z,1.70
2023-04-19T00:08:20.540Z,1.80
2023-04-19T00:09:25.471Z,1.40
2023-04-19T00:10:27.304Z,1.42
2023-04-19T00:11:29.027Z,1.40
2023-04-19T00:12:30.746Z,1.45
2023-04-19T00:13:32.427Z,1.25
2023-04-19T00:14:34.173Z,1.50
2023-04-19T00:15:35.908Z,1.55
2023-04-19T00:16:37.658Z,1.60
2023-04-19T00:17:39.533Z,1.13
2023-04-19T00:18:41.933Z,1.48
2023-04-19T00:19:44.667Z,1.30
2023-04-19T00:20:46.746Z,1.20
2023-04-19T00:21:48.486Z,1.40
2023-04-19T00:22:50.271Z,1.30
2023-04-19T00:23:52.202Z,1.20
2023-04-19T00:24:54.159Z,1.20
2023-04-19T00:25:55.859Z,1.00
2023-04-19T00:26:57.589Z,0.75
2023-04-19T00:27:59.299Z,0.88
2023-04-19T00:29:01.040Z,0.77
2023-04-19T00:30:02.802Z,0.80
2023-04-19T00:31:04.619Z,0.80
2023-04-19T00:32:06.328Z,1.27
2023-04-19T00:33:13.172Z,1.10
2023-04-19T00:34:15.250Z,1.00
2023-04-19T00:35:17.277Z,0.90
2023-04-19T00:36:18.966Z,0.90
2023-04-19T00:37:20.933Z,0.70
2023-04-19T00:38:22.719Z,0.68
2023-04-19T00:39:24.467Z,0.70
2023-04-19T00:40:26.363Z,0.85
2023-04-19T00:41:28.070Z,0.57
2023-04-19T00:42:29.756Z,0.50
2023-04-19T00:43:31.529Z,0.77
2023-04-19T00:44:33.272Z,0.90
2023-04-19T00:45:36.663Z,0.98
2023-04-19T00:46:38.973Z,0.93
2023-04-19T00:47:41.597Z,0.88
2023-04-19T00:48:43.459Z,1.10
2023-04-19T00:49:45.334Z,0.90
2023-04-19T00:50:47.278Z,1.00
2023-04-19T00:51:50.463Z,1.15
2023-04-19T00:52:55.634Z,0.82
2023-04-19T00:53:58.461Z,0.82
2023-04-19T00:55:00.541Z,0.85
2023-04-19T00:56:05.565Z,1.00
2023-04-19T00:57:07.269Z,0.70
2023-04-19T00:58:09.677Z,1.00
2023-04-19T00:59:12.136Z,0.90
2023-04-19T01:00:15.188Z,0.90
2023-04-19T01:01:17.052Z,0.80
2023-04-19T01:02:18.837Z,0.63
2023-04-19T01:03:20.800Z,0.80
2023-04-19T01:04:23.261Z,0.55
2023-04-19T01:05:25.060Z,0.80
2023-04-19T01:06:30.312Z,0.90
2023-04-19T01:07:34.167Z,0.68
2023-04-19T01:08:35.965Z,0.60
2023-04-19T01:09:41.286Z,0.80
2023-04-19T01:10:43.029Z,0.65
2023-04-19T01:11:44.764Z,0.82
2023-04-19T01:12:46.476Z,0.60
2023-04-19T01:13:48.166Z,0.70
2023-04-19T01:14:50.631Z,0.90
2023-04-19T01:15:52.364Z,0.95
2023-04-19T01:16:54.361Z,0.93
2023-04-19T01:17:57.027Z,1.15
2023-04-19T01:18:58.920Z,1.00
2023-04-19T01:20:08.831Z,0.90
2023-04-19T01:21:10.843Z,0.77
2023-04-19T01:22:19.379Z,0.70
2023-04-19T01:23:21.427Z,1.10
2023-04-19T01:24:23.176Z,0.70
2023-04-19T01:25:24.891Z,0.80
2023-04-19T01:26:26.857Z,0.90
2023-04-19T01:27:28.622Z,0.85
2023-04-19T01:28:30.407Z,1.00
2023-04-19T01:29:32.177Z,0.68
2023-04-19T01:30:35.508Z,0.80
2023-04-19T01:31:37.301Z,0.80
2023-04-19T01:32:39.140Z,0.88
2023-04-19T01:33:40.883Z,0.85
2023-04-19T01:34:43.034Z,1.10
2023-04-19T01:35:44.818Z,1.27
2023-04-19T01:36:46.536Z,1.15
2023-04-19T01:37:48.325Z,0.80
2023-04-19T01:38:50.135Z,0.88
2023-04-19T01:39:51.932Z,0.70
2023-04-19T01:40:53.733Z,0.80
2023-04-19T01:41:55.532Z,0.80
2023-04-19T01:42:57.239Z,0.65
2023-04-19T01:43:58.976Z,0.90
2023-04-19T01:45:00.888Z,0.70
2023-04-19T01:46:02.587Z,0.80
2023-04-19T01:47:05.446Z,0.80
2023-04-19T01:48:07.613Z,0.80
2023-04-19T01:49:09.733Z,0.95
2023-04-19T01:50:11.561Z,0.82
2023-04-19T01:51:13.357Z,0.80
2023-04-19T01:52:15.061Z,0.80
2023-04-19T01:53:16.760Z,0.80
2023-04-19T01:54:18.491Z,0.95
2023-04-19T01:55:20.314Z,0.70
2023-04-19T01:56:22.139Z,0.70
2023-04-19T01:57:23.857Z,0.80
2023-04-19T01:58:25.538Z,0.65
2023-04-19T01:59:27.286Z,0.90
2023-04-19T02:00:29.184Z,0.90
2023-04-19T02:01:31.024Z,0.80
2023-04-19T02:02:32.839Z,0.85
2023-04-19T02:03:34.650Z,0.90
2023-04-19T02:04:37.531Z,0.75
2023-04-19T02:05:40.128Z,0.88
2023-04-19T02:06:41.860Z,0.80
2023-04-19T02:07:43.676Z,0.93
2023-04-19T02:08:45.437Z,0.88
2023-04-19T02:09:47.125Z,0.80
2023-04-19T02:10:48.817Z,0.95
2023-04-19T02:11:50.548Z,0.82
2023-04-19T02:12:52.240Z,0.82
2023-04-19T02:13:53.941Z,0.85
2023-04-19T02:14:59.654Z,0.88
2023-04-19T02:16:02.659Z,0.90
2023-04-19T02:17:04.480Z,0.90
2023-04-19T02:18:07.115Z,0.80
2023-04-19T02:19:09.277Z,0.60
2023-04-19T02:20:11.221Z,0.80
2023-04-19T02:21:12.961Z,0.63
2023-04-19T02:22:14.667Z,0.80
2023-04-19T02:23:16.374Z,0.77
2023-04-19T02:24:18.160Z,0.70
2023-04-19T02:25:20.131Z,0.85
2023-04-19T02:26:22.289Z,0.80
2023-04-19T02:27:23.992Z,0.70
2023-04-19T02:28:25.778Z,0.75
2023-04-19T02:29:27.963Z,0.80
2023-04-19T02:30:29.665Z,0.70
2023-04-19T02:31:31.431Z,0.73
2023-04-19T02:32:33.585Z,0.77
2023-04-19T02:33:36.555Z,0.70
2023-04-19T02:34:38.330Z,0.65
2023-04-19T02:35:40.175Z,0.80
2023-04-19T02:36:41.882Z,0.63
2023-04-19T02:37:44.469Z,0.57
2023-04-19T02:38:46.224Z,0.80
2023-04-19T02:39:48.060Z,0.80
2023-04-19T02:40:49.807Z,0.73
2023-04-19T02:41:51.573Z,0.90
2023-04-19T02:42:53.295Z,0.68
2023-04-19T02:43:54.997Z,0.93
2023-04-19T02:44:56.810Z,0.80
2023-04-19T02:45:58.704Z,0.60
2023-04-19T02:47:00.466Z,0.60
2023-04-19T02:48:02.686Z,0.70
2023-04-19T02:49:04.910Z,0.50
2023-04-19T02:50:07.140Z,0.90
2023-04-19T02:51:08.888Z,0.70
2023-04-19T02:52:11.061Z,0.52
2023-04-19T02:53:12.874Z,0.80
2023-04-19T02:54:14.921Z,0.90
2023-04-19T02:55:19.944Z,0.98
2023-04-19T02:56:21.748Z,1.20
2023-04-19T02:57:23.482Z,1.60
2023-04-19T02:58:25.216Z,1.50
2023-04-19T02:59:27.142Z,1.20
2023-04-19T03:00:29.037Z,1.40
2023-04-19T03:01:31.364Z,0.75
2023-04-19T03:02:33.251Z,0.80
2023-04-19T03:03:35.128Z,0.98
2023-04-19T03:04:37.112Z,0.80
2023-04-19T03:05:38.810Z,0.82
2023-04-19T03:06:42.022Z,0.80
2023-04-19T03:07:44.631Z,0.68
2023-04-19T03:08:46.769Z,0.60
2023-04-19T03:09:48.470Z,0.95
2023-04-19T03:10:50.150Z,0.70
2023-04-19T03:11:51.855Z,0.70
2023-04-19T03:12:53.561Z,0.85
2023-04-19T03:13:55.318Z,0.55
2023-04-19T03:14:57.038Z,0.68
2023-04-19T03:15:58.742Z,0.73
2023-04-19T03:17:00.632Z,0.70
2023-04-19T03:18:02.597Z,0.60
2023-04-19T03:19:04.345Z,0.90
2023-04-19T03:20:12.351Z,0.63
2023-04-19T03:21:14.046Z,0.80
2023-04-19T03:22:15.844Z,0.80
2023-04-19T03:23:17.553Z,0.88
2023-04-19T03:24:20.323Z,0.98
2023-04-19T03:25:22.255Z,0.85
2023-04-19T03:26:24.017Z,1.13
2023-04-19T03:27:25.769Z,0.85
2023-04-19T03:28:27.801Z,1.00
2023-04-19T03:29:29.621Z,1.00
2023-04-19T03:30:31.301Z,1.02
2023-04-19T03:31:33.022Z,0.90
2023-04-19T03:32:34.790Z,0.70
2023-04-19T03:33:36.538Z,0.80
2023-04-19T03:34:38.266Z,0.88
2023-04-19T03:35:40.008Z,0.90
2023-04-19T03:36:41.968Z,0.70
2023-04-19T03:37:43.889Z,1.25
2023-04-19T03:38:45.835Z,0.90
2023-04-19T03:39:47.622Z,1.00
2023-04-19T03:40:49.336Z,1.13
2023-04-19T03:41:51.068Z,1.17
2023-04-19T03:42:52.843Z,1.00
2023-04-19T03:43:54.653Z,0.60
2023-04-19T03:44:57.011Z,0.80
2023-04-19T03:45:58.733Z,0.60
2023-04-19T03:47:00.566Z,0.75
2023-04-19T03:48:03.151Z,1.15
2023-04-19T03:49:05.084Z,0.60
2023-04-19T03:50:07.702Z,0.75
2023-04-19T03:51:09.447Z,0.85
2023-04-19T03:52:11.314Z,0.82
2023-04-19T03:53:12.999Z,0.75
2023-04-19T03:54:14.842Z,0.68
2023-04-19T03:55:16.890Z,0.73
2023-04-19T03:56:18.664Z,1.00
2023-04-19T03:57:20.457Z,1.00
2023-04-19T03:58:22.798Z,0.70
2023-04-19T03:59:24.543Z,0.80
2023-04-19T04:00:27.528Z,0.70
2023-04-19T04:01:29.271Z,1.00
2023-04-19T04:02:31.512Z,1.38
2023-04-19T04:03:33.870Z,1.40
2023-04-19T04:04:36.206Z,1.45
2023-04-19T04:05:38.223Z,1.10
2023-04-19T04:06:40.041Z,0.93
2023-04-19T04:07:42.229Z,1.02
2023-04-19T04:08:43.980Z,0.80
2023-04-19T04:09:47.772Z,0.90
2023-04-19T04:10:49.534Z,0.90
2023-04-19T04:11:51.283Z,1.00
2023-04-19T04:12:53.043Z,0.82
2023-04-19T04:13:56.369Z,0.90
2023-04-19T04:14:58.079Z,1.00
2023-04-19T04:15:59.962Z,1.05
2023-04-19T04:17:01.687Z,1.10
2023-04-19T04:18:03.751Z,1.00
2023-04-19T04:19:05.563Z,1.00
2023-04-19T04:20:08.901Z,1.08
2023-04-19T04:21:10.733Z,0.98
2023-04-19T04:22:12.729Z,0.95
2023-04-19T04:23:14.569Z,1.20
2023-04-19T04:24:18.053Z,1.30
2023-04-19T04:25:22.821Z,1.20
2023-04-19T04:26:25.527Z,0.90
2023-04-19T04:27:27.342Z,1.08
2023-04-19T04:28:29.057Z,1.33
2023-04-19T04:29:33.125Z,1.05
2023-04-19T04:30:35.107Z,1.30
2023-04-19T04:31:36.828Z,1.02
2023-04-19T04:32:39.030Z,1.17
2023-04-19T04:33:41.761Z,1.10
2023-04-19T04:34:43.617Z,1.05
2023-04-19T04:35:45.383Z,1.08
2023-04-19T04:36:47.679Z,1.00
2023-04-19T04:37:49.668Z,1.38
2023-04-19T04:38:51.697Z,1.30
2023-04-19T04:39:53.463Z,1.20
2023-04-19T04:40:56.327Z,1.20
2023-04-19T04:41:58.182Z,1.20
2023-04-19T04:43:01.082Z,1.02
2023-04-19T04:44:12.639Z,1.17
2023-04-19T04:45:18.248Z,1.10
2023-04-19T04:46:20.131Z,0.98
2023-04-19T04:47:22.012Z,1.30
2023-04-19T04:48:24.517Z,1.25
2023-04-19T04:49:26.264Z,1.30
2023-04-19T04:50:27.955Z,1.27
2023-04-19T04:51:29.656Z,1.50
2023-04-19T04:52:31.389Z,1.30
2023-04-19T04:53:33.197Z,1.17
2023-04-19T04:54:34.888Z,1.40
2023-04-19T04:55:37.214Z,1.30
2023-04-19T04:56:38.964Z,1.20
2023-04-19T04:57:40.880Z,1.05
2023-04-19T04:58:42.573Z,1.30
2023-04-19T04:59:44.326Z,1.10
2023-04-19T05:00:47.185Z,1.13
2023-04-19T05:01:49.053Z,1.25
2023-04-19T05:02:50.915Z,1.10
2023-04-19T05:03:52.787Z,1.27
2023-04-19T05:04:54.507Z,1.20
2023-04-19T05:05:56.448Z,1.30
2023-04-19T05:07:00.261Z,1.30
2023-04-19T05:08:01.948Z,1.08
2023-04-19T05:09:03.727Z,1.10
2023-04-19T05:10:06.406Z,1.20
2023-04-19T05:11:08.923Z,1.20
2023-04-19T05:12:10.768Z,1.05
2023-04-19T05:13:12.510Z,1.30
2023-04-19T05:14:14.323Z,1.30
2023-04-19T05:15:16.197Z,1.42
2023-04-19T05:16:18.048Z,1.27
2023-04-19T05:17:19.852Z,1.15
2023-04-19T05:18:21.642Z,1.50
2023-04-19T05:19:23.489Z,1.40
2023-04-19T05:20:25.835Z,1.50
2023-04-19T05:21:27.533Z,1.20
2023-04-19T05:22:29.282Z,1.13
2023-04-19T05:23:30.975Z,1.10
2023-04-19T05:24:32.742Z,1.30
2023-04-19T05:25:35.140Z,1.10
2023-04-19T05:26:36.906Z,1.00
2023-04-19T05:27:38.654Z,1.05
2023-04-19T05:28:40.621Z,1.10
2023-04-19T05:29:42.317Z,1.20
2023-04-19T05:30:44.089Z,1.02
2023-04-19T05:31:45.868Z,1.08
2023-04-19T05:32:47.702Z,1.10
2023-04-19T05:33:49.678Z,1.00
2023-04-19T05:34:51.469Z,1.38
2023-04-19T05:35:53.130Z,1.10
2023-04-19T05:36:54.846Z,1.20
2023-04-19T05:37:56.560Z,1.10
2023-04-19T05:38:58.279Z,1.15
2023-04-19T05:40:00.057Z,1.08
2023-04-19T05:41:03.175Z,1.10
2023-04-19T05:42:04.950Z,1.20
2023-04-19T05:43:06.715Z,1.10
2023-04-19T05:44:08.502Z,1.25
2023-04-19T05:45:10.778Z,1.00
2023-04-19T05:46:12.571Z,1.75
2023-04-19T05:47:14.323Z,0.98
2023-04-19T05:48:16.242Z,1.02
2023-04-19T05:49:17.954Z,1.20
2023-04-19T05:50:20.677Z,1.35
2023-04-19T05:51:22.620Z,1.27
2023-04-19T05:52:24.545Z,1.25
2023-04-19T05:53:26.263Z,1.40
2023-04-19T05:54:28.606Z,1.20
2023-04-19T05:55:31.037Z,1.08
2023-04-19T05:56:32.733Z,1.20
2023-04-19T05:57:34.522Z,1.38
2023-04-19T05:58:36.802Z,1.02
2023-04-19T05:59:38.604Z,1.13
2023-04-19T06:00:40.470Z,1.13
2023-04-19T06:01:42.286Z,0.90
2023-04-19T06:02:44.773Z,1.00
2023-04-19T06:03:46.992Z,1.40
2023-04-19T06:04:49.662Z,1.20
2023-04-19T06:05:51.637Z,1.42
2023-04-19T06:06:53.583Z,0.90
2023-04-19T06:08:02.866Z,0.95
2023-04-19T06:09:05.060Z,0.95
2023-04-19T06:10:07.665Z,1.10
2023-04-19T06:11:20.241Z,0.90
2023-04-19T06:12:28.828Z,0.77
2023-04-19T06:13:30.718Z,1.10
2023-04-19T06:14:32.603Z,1.20
2023-04-19T06:15:34.301Z,1.40
2023-04-19T06:16:36.739Z,1.10
2023-04-19T06:17:38.506Z,1.20
2023-04-19T06:18:41.132Z,1.02
2023-04-19T06:19:43.198Z,1.10
2023-04-19T06:20:44.975Z,1.38
2023-04-19T06:21:47.782Z,1.38
2023-04-19T06:22:49.633Z,1.45
2023-04-19T06:23:51.358Z,0.90
2023-04-19T06:24:53.100Z,1.08
2023-04-19T06:25:54.832Z,1.30
2023-04-19T06:26:57.408Z,1.38
2023-04-19T06:27:59.236Z,1.40
2023-04-19T06:29:01.405Z,1.15
2023-04-19T06:30:03.842Z,1.38
2023-04-19T06:31:05.647Z,1.30
2023-04-19T06:32:07.629Z,1.27
2023-04-19T06:33:09.328Z,1.10
2023-04-19T06:34:11.268Z,1.40
2023-04-19T06:35:13.147Z,1.75
2023-04-19T06:36:15.011Z,1.10
2023-04-19T06:37:16.733Z,1.08
2023-04-19T06:38:18.480Z,0.95
2023-04-19T06:39:20.643Z,1.20
2023-04-19T06:40:22.452Z,1.35
2023-04-19T06:41:24.196Z,0.98
2023-04-19T06:42:26.356Z,1.38
2023-04-19T06:43:28.031Z,1.42
2023-04-19T06:44:30.165Z,1.63
2023-04-19T06:45:32.212Z,1.25
2023-04-19T06:46:33.932Z,1.15
2023-04-19T06:47:35.963Z,1.60
2023-04-19T06:48:38.511Z,1.50
2023-04-19T06:49:40.196Z,1.08
2023-04-19T06:50:41.980Z,1.05
2023-04-19T06:51:43.676Z,1.30
2023-04-19T06:52:45.499Z,1.10
2023-04-19T06:53:47.395Z,1.60
2023-04-19T06:54:50.346Z,1.35
2023-04-19T06:56:01.100Z,1.50
2023-04-19T06:57:04.229Z,1.00
2023-04-19T06:58:07.929Z,1.05
2023-04-19T06:59:09.860Z,1.20
2023-04-19T07:00:12.169Z,1.10
2023-04-19T07:01:13.917Z,1.60
2023-04-19T07:02:15.755Z,1.30
2023-04-19T07:03:17.651Z,1.50
2023-04-19T07:04:20.093Z,1.02
2023-04-19T07:05:22.192Z,1.42
2023-04-19T07:06:24.005Z,1.10
2023-04-19T07:07:26.069Z,1.10
2023-04-19T07:08:34.864Z,1.13
2023-04-19T07:09:36.976Z,1.08
2023-04-19T07:10:38.694Z,1.20
2023-04-19T07:11:40.442Z,1.13
2023-04-19T07:12:42.197Z,1.00
2023-04-19T07:13:43.911Z,1.23
2023-04-19T07:14:45.705Z,1.23
2023-04-19T07:15:47.410Z,1.13
2023-04-19T07:16:50.868Z,1.20
2023-04-19T07:17:53.513Z,1.30
2023-04-19T07:18:55.508Z,1.30
2023-04-19T07:19:58.765Z,1.33
2023-04-19T07:21:00.453Z,1.30
2023-04-19T07:22:03.312Z,1.25
2023-04-19T07:23:05.081Z,1.30
2023-04-19T07:24:07.445Z,1.40
2023-04-19T07:25:09.652Z,1.40
2023-04-19T07:26:11.570Z,1.15
2023-04-19T07:27:14.616Z,1.17
2023-04-19T07:28:16.929Z,1.00
2023-04-19T07:29:19.224Z,1.13
2023-04-19T07:30:21.301Z,1.33
2023-04-19T07:31:25.001Z,1.20
2023-04-19T07:32:26.794Z,1.10
2023-04-19T07:33:28.840Z,1.30
2023-04-19T07:34:30.682Z,1.05
2023-04-19T07:35:32.524Z,1.20
2023-04-19T07:36:35.647Z,1.30
2023-04-19T07:37:37.382Z,1.35
2023-04-19T07:38:40.148Z,1.33
2023-04-19T07:39:41.870Z,1.20
2023-04-19T07:40:43.604Z,1.50
2023-04-19T07:41:45.811Z,1.20
2023-04-19T07:42:47.504Z,1.20
2023-04-19T07:43:49.193Z,1.10
2023-04-19T07:44:51.233Z,1.20
2023-04-19T07:45:53.407Z,1.15
2023-04-19T07:46:55.247Z,1.13
2023-04-19T07:47:57.067Z,1.38
2023-04-19T07:48:58.846Z,1.00
2023-04-19T07:50:00.719Z,1.40
2023-04-19T07:51:12.979Z,1.50
2023-04-19T07:52:14.704Z,1.40
2023-04-19T07:53:16.915Z,1.20
2023-04-19T07:54:20.636Z,1.30
2023-04-19T07:55:23.170Z,1.58
2023-04-19T07:56:28.319Z,1.30
2023-04-19T07:57:30.050Z,1.20
2023-04-19T07:58:31.748Z,1.27
2023-04-19T07:59:33.617Z,1.30
2023-04-19T08:00:36.996Z,1.33
2023-04-19T08:01:38.780Z,1.45
2023-04-19T08:02:43.558Z,1.50
2023-04-19T08:03:47.021Z,1.25
2023-04-19T08:04:50.018Z,1.20
2023-04-19T08:05:51.953Z,1.48
2023-04-19T08:06:53.761Z,1.40
2023-04-19T08:07:55.848Z,1.17
2023-04-19T08:08:57.712Z,1.45
2023-04-19T08:09:59.425Z,1.23
2023-04-19T08:11:02.600Z,1.50
2023-04-19T08:12:04.460Z,1.60
2023-04-19T08:13:06.787Z,1.40
2023-04-19T08:14:18.611Z,1.60
2023-04-19T08:16:15.190Z,1.73
2023-04-19T08:17:55.462Z,1.50
2023-04-19T08:18:57.176Z,1.80
2023-04-19T08:19:59.020Z,1.63
2023-04-19T08:21:00.895Z,1.33
2023-04-19T08:22:04.702Z,1.40
2023-04-19T08:23:20.586Z,1.50
2023-04-19T08:24:24.387Z,1.73
2023-04-19T08:25:28.620Z,1.40
2023-04-19T08:26:30.333Z,1.27
2023-04-19T08:27:32.121Z,1.33
2023-04-19T08:28:33.822Z,1.42
2023-04-19T08:29:36.107Z,1.38
2023-04-19T08:30:37.816Z,1.70
2023-04-19T08:31:40.018Z,1.50
2023-04-19T08:32:41.835Z,1.67
2023-04-19T08:33:43.611Z,1.50
2023-04-19T08:34:46.419Z,1.52
2023-04-19T08:35:48.141Z,1.42
2023-04-19T08:37:00.281Z,1.38
2023-04-19T08:38:05.526Z,1.30
2023-04-19T08:39:14.867Z,1.40
2023-04-19T08:40:23.210Z,1.20
2023-04-19T08:41:26.760Z,1.30
2023-04-19T08:42:36.522Z,1.40
2023-04-19T08:43:40.566Z,1.52
2023-04-19T08:45:05.724Z,1.60
2023-04-19T08:46:08.322Z,1.27
2023-04-19T08:47:15.231Z,1.40
2023-04-19T08:48:23.853Z,1.40
2023-04-19T08:49:26.747Z,1.38
2023-04-19T08:51:35.038Z,1.50
2023-04-19T08:52:48.193Z,1.20
2023-04-19T08:53:56.926Z,1.83
2023-04-19T08:55:00.700Z,1.63
2023-04-19T08:56:15.103Z,1.48
2023-04-19T08:57:19.520Z,1.52
2023-04-19T08:58:30.653Z,1.42
2023-04-19T08:59:39.587Z,1.60
2023-04-19T09:00:41.602Z,1.52
2023-04-19T09:01:44.740Z,1.40
2023-04-19T09:02:51.516Z,1.42
2023-04-19T09:04:03.319Z,1.40
2023-04-19T09:05:09.213Z,1.73
2023-04-19T09:06:12.454Z,1.45
2023-04-19T09:07:24.810Z,1.52
2023-04-19T09:08:27.518Z,1.50
2023-04-19T09:10:36.519Z,1.63
2023-04-19T09:11:41.337Z,1.45
2023-04-19T09:12:43.981Z,1.40
2023-04-19T09:13:45.772Z,1.20
2023-04-19T09:15:53.828Z,1.35
2023-04-19T09:17:12.671Z,1.20
2023-04-19T09:18:14.531Z,1.30
2023-04-19T09:19:24.143Z,1.38
2023-04-19T09:20:37.076Z,1.30
2023-04-19T09:21:40.143Z,1.45
2023-04-19T09:22:41.830Z,1.15
2023-04-19T09:23:48.348Z,1.30
2023-04-19T09:26:22.003Z,1.58
2023-04-19T09:27:33.990Z,1.10
2023-04-19T09:28:36.865Z,1.08
2023-04-19T09:29:39.168Z,1.40
2023-04-19T09:30:58.222Z,1.15
2023-04-19T09:33:05.096Z,1.42
2023-04-19T09:34:15.353Z,1.50
2023-04-19T09:35:17.206Z,1.50
2023-04-19T09:36:28.884Z,1.30
2023-04-19T09:37:51.377Z,1.05
2023-04-19T09:38:52.447Z,1.20
2023-04-19T09:39:54.202Z,1.10
2023-04-19T09:41:08.993Z,1.00
2023-04-19T09:42:10.889Z,1.20
2023-04-19T09:43:45.292Z,1.40
2023-04-19T09:45:06.012Z,1.25
2023-04-19T09:45:57.190Z,1.50
2023-04-19T09:46:59.028Z,1.15
2023-04-19T09:48:03.461Z,1.40
2023-04-19T09:49:21.651Z,1.10
2023-04-19T09:50:33.698Z,1.60
2023-04-19T09:51:41.603Z,1.40
2023-04-19T09:52:45.233Z,1.63
2023-04-19T09:53:47.058Z,1.10
2023-04-19T09:54:49.186Z,1.05
2023-04-19T09:56:01.482Z,1.40
2023-04-19T09:57:04.801Z,1.50
2023-04-19T09:58:06.508Z,1.35
2023-04-19T09:59:20.449Z,1.40
2023-04-19T10:00:23.495Z,1.38
2023-04-19T10:01:26.963Z,1.20
2023-04-19T10:02:34.527Z,1.17
2023-04-19T10:03:37.328Z,1.58
2023-04-19T10:04:59.630Z,1.20
2023-04-19T10:06:10.735Z,1.38
2023-04-19T10:08:21.506Z,1.30
2023-04-19T10:09:24.004Z,1.10
2023-04-19T10:10:40.447Z,1.40
2023-04-19T10:11:48.252Z,1.30
2023-04-19T10:14:02.065Z,1.02
2023-04-19T10:15:05.834Z,0.95
2023-04-19T10:16:18.112Z,1.30
2023-04-19T10:17:22.267Z,1.23
2023-04-19T10:18:25.144Z,1.25
2023-04-19T10:19:28.320Z,1.50
2023-04-19T10:20:54.635Z,1.50
2023-04-19T10:21:56.753Z,1.23
2023-04-19T10:22:59.429Z,1.48
2023-04-19T10:24:01.770Z,1.20
2023-04-19T10:25:15.154Z,1.20
2023-04-19T10:26:16.861Z,1.10
2023-04-19T10:27:25.830Z,1.40
2023-04-19T10:28:31.067Z,1.30
2023-04-19T10:29:51.787Z,1.05
2023-04-19T10:31:03.182Z,0.98
2023-04-19T10:32:13.259Z,1.33
2023-04-19T10:33:25.488Z,1.20
2023-04-19T10:34:42.613Z,1.33
2023-04-19T10:35:45.394Z,0.90
2023-04-19T10:36:47.167Z,0.80
2023-04-19T10:38:13.263Z,0.93
2023-04-19T10:39:41.823Z,1.20
2023-04-19T10:40:53.063Z,0.90
2023-04-19T10:41:59.649Z,0.75
2023-04-19T10:43:13.487Z,0.90
2023-04-19T10:44:15.242Z,1.02
2023-04-19T10:45:34.658Z,0.90
2023-04-19T10:46:40.803Z,1.00
2023-04-19T10:47:44.900Z,0.70
2023-04-19T10:48:54.009Z,0.85
2023-04-19T10:49:55.940Z,1.00
2023-04-19T10:51:00.964Z,0.85
2023-04-19T10:52:02.709Z,0.80
2023-04-19T10:53:43.012Z,1.08
2023-04-19T10:54:44.783Z,0.98
2023-04-19T10:55:51.175Z,0.80
2023-04-19T10:57:10.381Z,0.82
2023-04-19T10:58:12.163Z,0.90
2023-04-19T10:59:21.598Z,0.90
2023-04-19T11:00:25.846Z,0.70
2023-04-19T11:01:52.867Z,0.77
2023-04-19T11:02:54.892Z,0.98
2023-04-19T11:03:57.010Z,1.05
2023-04-19T11:05:00.693Z,0.85
2023-04-19T11:06:27.175Z,1.00
2023-04-19T11:07:29.674Z,0.75
2023-04-19T11:08:31.831Z,1.00
2023-04-19T11:09:45.297Z,0.95
2023-04-19T11:10:47.176Z,0.85
2023-04-19T11:11:48.910Z,0.93
2023-04-19T11:12:51.862Z,1.10
2023-04-19T11:13:58.085Z,1.00
2023-04-19T11:15:00.551Z,1.08
2023-04-19T11:16:08.432Z,0.82
2023-04-19T11:17:31.779Z,1.08
2023-04-19T11:18:33.694Z,0.90
2023-04-19T11:19:35.576Z,0.80
2023-04-19T11:20:37.312Z,0.93
2023-04-19T11:21:42.123Z,1.10
2023-04-19T11:22:46.817Z,1.10
2023-04-19T11:23:50.178Z,1.08
2023-04-19T11:24:51.868Z,1.05
2023-04-19T11:25:54.036Z,1.00
2023-04-19T11:26:57.217Z,1.20
2023-04-19T11:28:00.552Z,0.90
2023-04-19T11:29:02.428Z,0.90
2023-04-19T11:30:10.055Z,1.23
2023-04-19T11:31:12.000Z,1.10
2023-04-19T11:32:13.823Z,1.23
2023-04-19T11:33:15.567Z,1.00
2023-04-19T11:34:17.603Z,1.20
2023-04-19T11:35:21.799Z,1.23
2023-04-19T11:36:23.508Z,1.40
2023-04-19T11:37:25.234Z,1.20
2023-04-19T11:38:31.172Z,1.20
2023-04-19T11:39:33.012Z,1.05
2023-04-19T11:40:34.826Z,1.10
2023-04-19T11:41:41.005Z,1.40
2023-04-19T11:42:43.183Z,1.10
2023-04-19T11:43:48.656Z,1.10
2023-04-19T11:44:51.972Z,1.25
2023-04-19T11:45:54.477Z,1.20
2023-04-19T11:47:03.401Z,1.60
2023-04-19T11:48:06.202Z,1.45
2023-04-19T11:49:08.164Z,1.60
2023-04-19T11:50:42.037Z,1.50
2023-04-19T11:51:43.821Z,1.80
2023-04-19T11:52:49.489Z,1.88
2023-04-19T11:53:51.183Z,1.60
2023-04-19T11:54:53.865Z,1.80
2023-04-19T11:55:58.736Z,1.65
2023-04-19T11:57:03.586Z,1.60
2023-04-19T11:58:09.901Z,1.13
2023-04-19T11:59:11.605Z,1.33
2023-04-19T12:00:14.301Z,1.58
2023-04-19T12:01:19.886Z,1.35
2023-04-19T12:02:21.711Z,1.35
2023-04-19T12:03:26.379Z,1.50
2023-04-19T12:04:29.044Z,1.50
2023-04-19T12:05:33.017Z,1.60
2023-04-19T12:06:34.835Z,1.50
2023-04-19T12:07:37.049Z,1.55
2023-04-19T12:08:42.738Z,1.67
2023-04-19T12:09:49.163Z,1.40
2023-04-19T12:10:57.738Z,1.58
2023-04-19T12:11:59.707Z,1.60
2023-04-19T12:13:02.119Z,1.58
2023-04-19T12:14:11.978Z,1.60
2023-04-19T12:15:14.026Z,1.70
2023-04-19T12:16:27.664Z,1.17
2023-04-19T12:17:29.526Z,1.50
2023-04-19T12:18:50.693Z,1.67
2023-04-19T12:19:52.500Z,1.45
2023-04-19T12:20:55.111Z,1.70
2023-04-19T12:22:08.339Z,1.50
2023-04-19T12:23:13.970Z,1.80
2023-04-19T12:24:16.689Z,1.60
2023-04-19T12:25:18.697Z,1.60
2023-04-19T12:26:20.404Z,1.55
2023-04-19T12:27:22.258Z,1.70
2023-04-19T12:28:24.004Z,1.55
2023-04-19T12:29:27.578Z,1.77
2023-04-19T12:30:29.608Z,1.35
2023-04-19T12:31:34.629Z,1.75
2023-04-19T12:32:36.425Z,1.67
2023-04-19T12:33:38.194Z,1.58
2023-04-19T12:34:39.919Z,1.38
2023-04-19T12:35:43.113Z,1.65
2023-04-19T12:36:44.932Z,1.60
2023-04-19T12:37:46.958Z,1.80
2023-04-19T12:38:48.731Z,1.75
2023-04-19T12:39:50.448Z,1.70
2023-04-19T12:40:52.161Z,1.95
2023-04-19T12:41:53.949Z,1.83
2023-04-19T12:42:56.022Z,1.40
2023-04-19T12:43:57.798Z,1.42
2023-04-19T12:44:59.493Z,1.83
2023-04-19T12:46:01.538Z,2.10
2023-04-19T12:47:03.360Z,2.05
2023-04-19T12:48:05.315Z,2.20
2023-04-19T12:49:07.115Z,1.95
2023-04-19T12:50:09.502Z,2.15
2023-04-19T12:51:11.251Z,1.90
2023-04-19T12:52:12.947Z,1.90
2023-04-19T12:53:14.697Z,1.77
2023-04-19T12:54:16.625Z,2.38
2023-04-19T12:55:18.393Z,2.13
2023-04-19T12:56:20.291Z,2.10
2023-04-19T12:57:22.066Z,2.00
2023-04-19T12:58:23.824Z,1.88
2023-04-19T12:59:25.606Z,2.10
2023-04-19T13:00:27.552Z,2.13
2023-04-19T13:01:29.377Z,1.70
2023-04-19T13:02:31.208Z,2.13
2023-04-19T13:03:36.601Z,2.03
2023-04-19T13:04:38.634Z,2.08
2023-04-19T13:05:40.559Z,2.40
2023-04-19T13:06:42.462Z,2.08
2023-04-19T13:07:44.296Z,2.10
2023-04-19T13:08:47.920Z,2.08
2023-04-19T13:09:49.836Z,1.80
2023-04-19T13:10:51.569Z,1.50
2023-04-19T13:11:55.070Z,1.70
2023-04-19T13:12:59.145Z,1.88
2023-04-19T13:14:01.025Z,1.80
2023-04-19T13:15:04.542Z,1.52
2023-04-19T13:16:08.072Z,1.40
2023-04-19T13:17:10.016Z,1.35
2023-04-19T13:18:11.761Z,1.05
2023-04-19T13:19:13.485Z,1.30
2023-04-19T13:20:15.296Z,1.50
2023-04-19T13:21:17.154Z,1.50
2023-04-19T13:22:18.829Z,1.60
2023-04-19T13:23:20.808Z,1.45
2023-04-19T13:24:22.501Z,1.52
2023-04-19T13:25:24.240Z,1.67
2023-04-19T13:26:26.447Z,1.83
2023-04-19T13:27:28.240Z,1.77
2023-04-19T13:28:30.629Z,1.70
2023-04-19T13:29:32.530Z,1.65
2023-04-19T13:30:34.393Z,1.35
2023-04-19T13:31:36.251Z,1.50
2023-04-19T13:32:38.010Z,1.52
2023-04-19T13:33:39.841Z,1.40
2023-04-19T13:34:41.698Z,1.45
2023-04-19T13:35:45.142Z,1.40
2023-04-19T13:36:47.423Z,1.45
2023-04-19T13:37:49.144Z,1.40
2023-04-19T13:38:51.151Z,1.52
2023-04-19T13:39:55.131Z,1.10
2023-04-19T13:41:01.029Z,1.27
2023-04-19T13:42:02.825Z,1.40
2023-04-19T13:43:04.579Z,1.50
2023-04-19T13:44:06.287Z,1.20
2023-04-19T13:45:09.614Z,1.40
2023-04-19T13:46:11.626Z,1.30
2023-04-19T13:47:13.410Z,1.30
2023-04-19T13:48:15.194Z,1.40
2023-04-19T13:49:18.743Z,1.52
2023-04-19T13:50:21.037Z,1.60
2023-04-19T13:51:22.812Z,1.98
2023-04-19T13:52:24.591Z,2.17
2023-04-19T13:53:27.662Z,2.13
2023-04-19T13:54:29.354Z,2.33
2023-04-19T13:55:31.052Z,2.00
2023-04-19T13:56:32.803Z,1.90
2023-04-19T13:57:34.588Z,2.60
2023-04-19T13:58:37.356Z,2.20
2023-04-19T13:59:39.075Z,2.50
2023-04-19T14:00:40.838Z,2.88
2023-04-19T14:01:42.673Z,3.08
2023-04-19T14:02:45.720Z,3.08
2023-04-19T14:03:47.725Z,2.78
2023-04-19T14:04:49.580Z,3.10
2023-04-19T14:05:51.309Z,3.35
2023-04-19T14:06:53.051Z,2.72
2023-04-19T14:07:54.874Z,2.58
2023-04-19T14:08:56.577Z,2.58
2023-04-19T14:09:59.598Z,3.08
2023-04-19T14:11:01.589Z,2.60
2023-04-19T14:12:04.622Z,2.50
2023-04-19T14:13:07.580Z,2.42
2023-04-19T14:14:09.262Z,2.40
2023-04-19T14:15:11.673Z,2.38